Airfield :
LOGIN :

Register | Disclaimer

   EN    FR    IT 

 










Legend :    VFR   Marginal VFR   IFR   Intensive IFR   Very Intensive IFR
Visi :
Ceiling :
>= 8 km
>= 3000ft
5 to 8 km
1000 to 3000 ft
1500m to 5 km
500 to 1000 ft
800 to 1500m
200 to 500 ft
< 800m
< 200 ft
Symbols :   Thunderstorms  Fog  Heavy snow  Heavy precipitations  Wind > 20 kt
SIGMETs :     Misc.  Thunderstorms  Icing  Turbulence  Mountain Waves  Volcanic Ashes







- Airport Elevation : 16 ft
- IATA code : SDR


LEXJ - Santander Cantabria

CURRENT METAR :
  • 161500Z 25009KT 220V280 9999 BKN022 16/12 Q1022

EXPIRED METARs :
  • 161430Z 26011KT 200V290 9999 BKN022 15/11 Q1022
  • 161400Z 25012KT 210V290 9999 BKN022 16/12 Q1023
  • 161330Z 25009KT 220V280 9999 BKN026 BKN050 16/12 Q1023
  • 161300Z 25010KT 9999 BKN024 BKN050 16/11 Q1024
  • 161230Z 26009KT 230V290 9999 BKN022 BKN051 16/11 Q1024

TAF TAF LEXJ
Valid from the 16 at 15:00 until the 17 at 15:00 UTC


161400Z 1615/1715 27010KT 9999 SCT018 BKN025 TX16/1615Z TN11/1709Z
PROB30
TEMPO 1616/1618 25015G25KT BKN014
TEMPO 1618/1713 28016G28KT 4000 -RADZ BKN012
PROB40
TEMPO 1621/1706 30020G38KT 2500 RA BKN008
No reported NOTAMs for that airfield.



MET'MAP, your aeronautical weather chart ! - Copyright ORBIFLY December 2007 - Disclaimer

ORBIFLY MET'MAP TEAM :

Programming & Development : Alexandra Zaïnal
Concept & Development : Baudouin d'Aumeries
Co-Development & Prog : Marc-Olivier Méhu
Technical & hardware support : Manuel Goepfert

Contact : metmap@orbifly.com




SOURCES & CREDITS :

   NOAA